createdAt,value
2018-05-31T00:00:07.630Z,25.07
2018-05-31T00:02:35.134Z,28.13
2018-05-31T00:05:03.401Z,31.93
2018-05-31T00:07:31.669Z,33.70
2018-05-31T00:09:59.153Z,24.40
2018-05-31T00:12:26.662Z,31.20
2018-05-31T00:14:54.153Z,34.33
2018-05-31T00:17:22.421Z,28.53
2018-05-31T00:19:49.897Z,22.97
2018-05-31T00:22:17.409Z,29.20
2018-05-31T00:24:44.885Z,25.60
2018-05-31T00:27:12.373Z,30.60
2018-05-31T00:29:39.873Z,27.77
2018-05-31T00:32:07.361Z,22.37
2018-05-31T00:34:35.936Z,33.73
2018-05-31T00:37:03.417Z,32.90
2018-05-31T00:39:30.911Z,21.77
2018-05-31T00:41:58.406Z,25.53
2018-05-31T00:44:25.902Z,32.17
2018-05-31T00:46:53.736Z,21.60
2018-05-31T00:49:21.985Z,21.53
2018-05-31T00:51:49.474Z,26.53
2018-05-31T00:54:17.741Z,21.80
2018-05-31T00:56:45.995Z,37.83
2018-05-31T00:59:13.501Z,22.50
2018-05-31T01:01:40.995Z,35.10
2018-05-31T01:04:08.481Z,24.03
2018-05-31T01:06:36.753Z,22.70
2018-05-31T01:09:05.019Z,17.00
2018-05-31T01:11:32.521Z,31.93
2018-05-31T01:14:00.005Z,17.53
2018-05-31T01:16:27.517Z,19.83
2018-05-31T01:18:55.006Z,21.53
2018-05-31T01:21:22.502Z,34.27
2018-05-31T01:23:49.977Z,22.80
2018-05-31T01:26:18.234Z,27.87
2018-05-31T01:28:45.716Z,25.43
2018-05-31T01:31:13.471Z,21.40
2018-05-31T01:33:41.720Z,22.37
2018-05-31T01:36:09.201Z,31.40
2018-05-31T01:38:37.476Z,24.87
2018-05-31T01:41:05.721Z,21.97
2018-05-31T01:43:33.217Z,23.87
2018-05-31T01:46:00.742Z,15.80
2018-05-31T01:48:28.254Z,18.13
2018-05-31T01:50:55.732Z,21.00
2018-05-31T01:53:23.216Z,21.00
2018-05-31T01:55:51.477Z,23.13
2018-05-31T01:58:18.969Z,19.97
2018-05-31T02:00:46.477Z,22.70
2018-05-31T02:03:13.965Z,21.37
2018-05-31T02:05:42.235Z,20.53
2018-05-31T02:08:09.712Z,19.63
2018-05-31T02:10:37.215Z,26.57
2018-05-31T02:13:04.697Z,19.87
2018-05-31T02:15:32.193Z,16.33
2018-05-31T02:17:59.676Z,14.10
2018-05-31T02:20:27.498Z,17.57
2018-05-31T02:22:55.741Z,26.63
2018-05-31T02:25:23.498Z,26.00
2018-05-31T02:27:50.992Z,21.47
2018-05-31T02:30:18.476Z,18.97
2018-05-31T02:32:45.978Z,22.00
2018-05-31T02:35:13.456Z,19.40
2018-05-31T02:37:41.702Z,20.17
2018-05-31T02:40:09.205Z,18.00
2018-05-31T02:42:36.693Z,32.23
2018-05-31T02:45:04.196Z,18.37
2018-05-31T02:47:32.437Z,28.70
2018-05-31T02:50:00.229Z,12.50
2018-05-31T02:52:28.476Z,13.70
2018-05-31T02:54:55.956Z,13.83
2018-05-31T02:57:24.217Z,8.63
2018-05-31T02:59:51.702Z,16.60
2018-05-31T03:02:19.202Z,12.40
2018-05-31T03:04:46.681Z,14.60
2018-05-31T03:07:14.177Z,16.50
2018-05-31T03:09:41.660Z,12.53
2018-05-31T03:12:09.145Z,17.50
2018-05-31T03:14:36.642Z,18.27
2018-05-31T03:17:04.125Z,14.80
2018-05-31T03:19:31.618Z,19.17
2018-05-31T03:21:59.104Z,13.83
2018-05-31T03:24:27.358Z,15.60
2018-05-31T03:26:54.837Z,16.17
2018-05-31T03:29:22.337Z,24.97
2018-05-31T03:31:49.813Z,6.83
2018-05-31T03:34:17.294Z,10.97
2018-05-31T03:36:45.553Z,13.40
2018-05-31T03:39:13.033Z,14.27
2018-05-31T03:41:41.298Z,12.73
2018-05-31T03:44:09.541Z,9.93
2018-05-31T03:46:37.047Z,15.10
2018-05-31T03:49:04.526Z,16.80
2018-05-31T03:51:32.053Z,13.70
2018-05-31T03:53:59.556Z,12.20
2018-05-31T03:56:27.041Z,13.70
2018-05-31T03:58:54.536Z,11.17
2018-05-31T04:01:22.013Z,18.13
2018-05-31T04:03:49.508Z,10.87
2018-05-31T04:06:16.988Z,10.67
2018-05-31T04:08:44.470Z,12.23
2018-05-31T04:11:11.965Z,10.87
2018-05-31T04:13:39.440Z,21.00
2018-05-31T04:16:07.701Z,15.93
2018-05-31T04:18:35.180Z,9.00
2018-05-31T04:21:03.453Z,13.40
2018-05-31T04:23:31.769Z,10.23
2018-05-31T04:25:59.250Z,12.50
2018-05-31T04:28:26.741Z,18.37
2018-05-31T04:30:55.057Z,6.10
2018-05-31T04:33:22.539Z,10.10
2018-05-31T04:35:50.033Z,11.50
2018-05-31T04:38:18.274Z,13.73
2018-05-31T04:40:45.778Z,11.83
2018-05-31T04:43:13.271Z,17.27
2018-05-31T04:45:40.752Z,14.20
2018-05-31T04:48:08.253Z,10.70
2018-05-31T04:50:35.733Z,8.17
2018-05-31T04:53:03.233Z,10.20
2018-05-31T04:55:31.491Z,24.17
2018-05-31T04:57:58.969Z,14.70
2018-05-31T05:00:27.224Z,8.07
2018-05-31T05:02:54.725Z,10.27
2018-05-31T05:05:22.974Z,9.63
2018-05-31T05:07:51.221Z,11.43
2018-05-31T05:10:18.701Z,9.77
2018-05-31T05:12:46.961Z,19.63
2018-05-31T05:15:14.446Z,16.40
2018-05-31T05:17:41.952Z,11.13
2018-05-31T05:20:09.429Z,15.80
2018-05-31T05:22:36.913Z,9.83
2018-05-31T05:25:04.409Z,8.40
2018-05-31T05:27:31.894Z,12.10
2018-05-31T05:29:59.394Z,12.57
2018-05-31T05:32:26.889Z,8.20
2018-05-31T05:34:54.384Z,6.73
2018-05-31T05:37:22.701Z,7.40
2018-05-31T05:39:50.181Z,11.57
2018-05-31T05:42:17.677Z,11.23
2018-05-31T05:44:45.927Z,13.60
2018-05-31T05:47:13.437Z,13.83
2018-05-31T05:49:40.921Z,16.63
2018-05-31T05:52:08.393Z,10.37
2018-05-31T05:54:35.889Z,11.17
2018-05-31T05:57:03.367Z,15.43
2018-05-31T05:59:30.864Z,10.00
2018-05-31T06:01:58.346Z,11.90
2018-05-31T06:04:26.593Z,5.50
2018-05-31T06:06:54.081Z,5.27
2018-05-31T06:09:21.565Z,5.50
2018-05-31T06:11:49.065Z,6.33
2018-05-31T06:14:16.549Z,8.07
2018-05-31T06:16:44.865Z,12.53
2018-05-31T06:19:12.381Z,8.57
2018-05-31T06:21:40.617Z,4.10
2018-05-31T06:24:08.113Z,4.60
2018-05-31T06:26:35.700Z,10.57
2018-05-31T06:29:04.054Z,8.83
2018-05-31T06:31:31.536Z,7.20
2018-05-31T06:33:59.029Z,11.50
2018-05-31T06:36:26.513Z,5.50
2018-05-31T06:38:54.762Z,8.33
2018-05-31T06:41:23.085Z,6.07
2018-05-31T06:43:50.569Z,6.10
2018-05-31T06:46:18.041Z,7.07
2018-05-31T06:48:45.529Z,7.17
2018-05-31T06:51:13.763Z,8.57
2018-05-31T06:53:41.254Z,4.43
2018-05-31T06:56:09.503Z,23.73
2018-05-31T06:58:36.978Z,7.63
2018-05-31T07:01:04.464Z,5.33
2018-05-31T07:03:31.941Z,8.60
2018-05-31T07:05:59.426Z,9.03
2018-05-31T07:08:26.897Z,11.30
2018-05-31T07:10:54.382Z,7.40
2018-05-31T07:13:21.845Z,12.50
2018-05-31T07:15:49.375Z,14.80
2018-05-31T07:18:16.815Z,9.37
2018-05-31T07:20:44.310Z,8.53
2018-05-31T07:23:11.786Z,8.20
2018-05-31T07:25:39.279Z,11.90
2018-05-31T07:28:06.749Z,15.87
2018-05-31T07:30:34.237Z,10.77
2018-05-31T07:33:01.707Z,15.53
2018-05-31T07:35:29.219Z,10.67
2018-05-31T07:37:56.682Z,8.33
2018-05-31T07:40:24.918Z,12.87
2018-05-31T07:42:52.410Z,13.63
2018-05-31T07:45:20.646Z,10.30
2018-05-31T07:47:48.146Z,14.83
2018-05-31T07:50:16.377Z,10.40
2018-05-31T07:52:44.691Z,14.40
2018-05-31T07:55:12.933Z,16.40
2018-05-31T07:57:40.417Z,12.63
2018-05-31T08:00:07.885Z,14.17
2018-05-31T08:02:36.133Z,6.53
2018-05-31T08:05:03.613Z,10.00
2018-05-31T08:07:31.873Z,16.63
2018-05-31T08:09:59.350Z,14.13
2018-05-31T08:12:27.598Z,9.63
2018-05-31T08:14:55.076Z,19.30
2018-05-31T08:17:23.351Z,13.70
2018-05-31T08:19:51.588Z,17.07
2018-05-31T08:22:19.078Z,16.83
2018-05-31T08:24:47.312Z,12.97
2018-05-31T08:27:14.809Z,13.23
2018-05-31T08:29:43.041Z,19.63
2018-05-31T08:32:11.283Z,13.40
2018-05-31T08:34:38.767Z,15.30
2018-05-31T08:37:06.234Z,19.70
2018-05-31T08:39:33.726Z,10.50
2018-05-31T08:42:01.962Z,11.00
2018-05-31T08:44:29.445Z,14.97
2018-05-31T08:46:57.682Z,8.80
2018-05-31T08:49:25.181Z,14.33
2018-05-31T08:51:53.418Z,11.87
2018-05-31T08:54:20.901Z,9.83
2018-05-31T08:56:48.373Z,13.10
2018-05-31T08:59:16.625Z,20.27
2018-05-31T09:01:44.089Z,15.70
2018-05-31T09:04:12.346Z,10.40
2018-05-31T09:06:39.817Z,28.80
2018-05-31T09:09:07.290Z,10.70
2018-05-31T09:11:35.555Z,11.67
2018-05-31T09:14:03.790Z,13.90
2018-05-31T09:16:31.686Z,9.90
2018-05-31T09:19:00.002Z,14.77
2018-05-31T09:21:28.383Z,7.83
2018-05-31T09:23:55.868Z,9.53
2018-05-31T09:26:23.346Z,8.90
2018-05-31T09:28:50.909Z,12.17
2018-05-31T09:31:18.425Z,8.73
2018-05-31T09:33:45.908Z,12.53
2018-05-31T09:36:13.393Z,8.33
2018-05-31T09:38:41.628Z,14.03
2018-05-31T09:41:09.161Z,13.43
2018-05-31T09:43:36.596Z,12.90
2018-05-31T09:46:04.088Z,5.60
2018-05-31T09:48:31.566Z,17.30
2018-05-31T09:50:59.033Z,6.73
2018-05-31T09:53:27.289Z,10.07
2018-05-31T09:55:54.761Z,24.10
2018-05-31T09:58:23.015Z,14.63
2018-05-31T10:00:50.500Z,15.50
2018-05-31T10:03:18.749Z,10.80
2018-05-31T10:05:46.217Z,11.20
2018-05-31T10:08:13.705Z,13.73
2018-05-31T10:10:41.174Z,10.80
2018-05-31T10:13:08.669Z,12.10
2018-05-31T10:15:36.148Z,20.97
2018-05-31T10:18:04.405Z,12.40
2018-05-31T10:20:31.873Z,13.23
2018-05-31T10:22:59.364Z,11.07
2018-05-31T10:25:26.839Z,15.27
2018-05-31T10:27:54.344Z,13.20
2018-05-31T10:30:22.591Z,10.97
2018-05-31T10:32:50.061Z,8.53
2018-05-31T10:35:17.554Z,14.70
2018-05-31T10:37:45.023Z,12.90
2018-05-31T10:40:12.517Z,15.17
2018-05-31T10:42:39.999Z,11.07
2018-05-31T10:45:08.316Z,11.77
2018-05-31T10:47:35.802Z,14.83
2018-05-31T10:50:03.287Z,8.23
2018-05-31T10:52:31.521Z,12.23
2018-05-31T10:54:59.009Z,13.90
2018-05-31T10:57:26.517Z,13.63
2018-05-31T10:59:54.005Z,7.00
2018-05-31T11:02:21.473Z,5.53
2018-05-31T11:04:48.965Z,9.20
2018-05-31T11:07:16.434Z,5.90
2018-05-31T11:09:43.906Z,8.23
2018-05-31T11:12:11.389Z,12.60
2018-05-31T11:14:38.856Z,8.97
2018-05-31T11:17:06.337Z,8.23
2018-05-31T11:19:33.811Z,10.90
2018-05-31T11:22:01.829Z,7.43
2018-05-31T11:24:29.301Z,23.83
2018-05-31T11:26:57.546Z,18.30
2018-05-31T11:29:25.019Z,6.03
2018-05-31T11:31:52.509Z,8.20
2018-05-31T11:34:19.980Z,10.07
2018-05-31T11:36:47.462Z,12.77
2018-05-31T11:39:14.928Z,8.73
2018-05-31T11:41:42.439Z,9.97
2018-05-31T11:44:10.660Z,8.13
2018-05-31T11:46:38.150Z,16.50
2018-05-31T11:49:06.390Z,9.23
2018-05-31T11:51:33.861Z,13.37
2018-05-31T11:54:01.351Z,10.07
2018-05-31T11:56:28.866Z,9.93
2018-05-31T11:58:56.326Z,10.53
2018-05-31T12:01:23.795Z,12.53
2018-05-31T12:03:52.045Z,5.17
2018-05-31T12:06:19.513Z,5.50
2018-05-31T12:08:47.001Z,11.73
2018-05-31T12:11:14.471Z,8.30
2018-05-31T12:13:41.961Z,11.10
2018-05-31T12:16:09.432Z,14.73
2018-05-31T12:18:36.913Z,6.00
2018-05-31T12:21:05.153Z,9.47
2018-05-31T12:23:32.642Z,10.40
2018-05-31T12:26:00.877Z,13.57
2018-05-31T12:28:28.381Z,11.33
2018-05-31T12:30:55.850Z,6.83
2018-05-31T12:33:23.322Z,13.73
2018-05-31T12:35:50.825Z,23.43
2018-05-31T12:38:18.294Z,14.47
2018-05-31T12:40:46.542Z,19.63
2018-05-31T12:43:14.061Z,10.77
2018-05-31T12:45:41.547Z,9.70
2018-05-31T12:48:09.301Z,12.73
2018-05-31T12:50:36.788Z,14.33
2018-05-31T12:53:05.039Z,7.43
2018-05-31T12:55:32.532Z,10.80
2018-05-31T12:58:00.834Z,10.53
2018-05-31T13:00:28.325Z,6.53
2018-05-31T13:02:55.805Z,11.63
2018-05-31T13:05:23.289Z,15.67
2018-05-31T13:07:50.757Z,11.90
2018-05-31T13:10:18.257Z,9.87
2018-05-31T13:12:45.751Z,11.57
2018-05-31T13:15:13.232Z,18.97
2018-05-31T13:17:40.716Z,9.33
2018-05-31T13:20:08.189Z,17.20
2018-05-31T13:22:35.669Z,9.07
2018-05-31T13:25:03.909Z,9.67
2018-05-31T13:27:31.393Z,9.33
2018-05-31T13:29:59.617Z,9.40
2018-05-31T13:32:27.101Z,8.20
2018-05-31T13:34:54.578Z,4.20
2018-05-31T13:37:22.830Z,12.60
2018-05-31T13:39:50.309Z,10.17
2018-05-31T13:42:18.558Z,6.10
2018-05-31T13:44:46.033Z,6.93
2018-05-31T13:47:14.288Z,5.23
2018-05-31T13:49:41.769Z,8.03
2018-05-31T13:52:10.035Z,25.23
2018-05-31T13:54:38.277Z,8.90
2018-05-31T13:57:05.749Z,11.40
2018-05-31T13:59:33.237Z,11.40
2018-05-31T14:02:01.483Z,12.87
2018-05-31T14:04:28.968Z,11.70
2018-05-31T14:06:57.558Z,10.50
2018-05-31T14:09:25.059Z,7.27
2018-05-31T14:11:52.998Z,12.10
2018-05-31T14:14:20.486Z,9.67
2018-05-31T14:16:47.953Z,16.57
2018-05-31T14:19:15.437Z,13.00
2018-05-31T14:21:43.672Z,9.43
2018-05-31T14:24:11.164Z,10.57
2018-05-31T14:26:39.393Z,11.57
2018-05-31T14:29:06.873Z,6.47
2018-05-31T14:31:34.341Z,14.93
2018-05-31T14:34:02.599Z,6.93
2018-05-31T14:36:30.061Z,7.17
2018-05-31T14:38:57.564Z,8.63
2018-05-31T14:41:25.038Z,7.13
2018-05-31T14:43:52.504Z,9.10
2018-05-31T14:46:19.985Z,9.40
2018-05-31T14:48:47.466Z,11.87
2018-05-31T14:51:15.713Z,9.03
2018-05-31T14:53:43.220Z,14.77
2018-05-31T14:56:10.705Z,5.60
2018-05-31T14:58:38.169Z,3.77
2018-05-31T15:01:05.656Z,3.70
2018-05-31T15:03:33.909Z,7.13
2018-05-31T15:06:01.393Z,5.63
2018-05-31T15:08:29.635Z,7.50
2018-05-31T15:10:57.121Z,4.93
2018-05-31T15:13:25.354Z,4.80
2018-05-31T15:15:52.838Z,4.63
2018-05-31T15:18:21.074Z,9.20
2018-05-31T15:20:48.565Z,8.83
2018-05-31T15:23:16.033Z,8.23
2018-05-31T15:25:44.270Z,3.17
2018-05-31T15:28:11.753Z,9.77
2018-05-31T15:30:39.218Z,7.40
2018-05-31T15:33:07.468Z,7.67
2018-05-31T15:35:34.972Z,12.27
2018-05-31T15:38:03.197Z,8.30
2018-05-31T15:40:30.674Z,10.67
2018-05-31T15:42:58.925Z,6.87
2018-05-31T15:45:26.440Z,18.40
2018-05-31T15:47:53.929Z,7.53
2018-05-31T15:50:21.396Z,6.20
2018-05-31T15:52:48.882Z,7.97
2018-05-31T15:55:17.118Z,8.57
2018-05-31T15:57:44.615Z,9.30
2018-05-31T16:00:12.102Z,16.13
2018-05-31T16:02:39.593Z,8.63
2018-05-31T16:05:07.063Z,6.67
2018-05-31T16:07:35.301Z,8.10
2018-05-31T16:10:02.792Z,9.47
2018-05-31T16:12:30.257Z,9.27
2018-05-31T16:14:58.509Z,4.80
2018-05-31T16:17:25.975Z,9.63
2018-05-31T16:19:53.462Z,7.37
2018-05-31T16:22:22.073Z,7.83
2018-05-31T16:24:49.555Z,7.60
2018-05-31T16:27:17.025Z,5.20
2018-05-31T16:29:44.512Z,4.37
2018-05-31T16:32:11.982Z,10.40
2018-05-31T16:34:39.466Z,6.63
2018-05-31T16:37:06.996Z,7.00
2018-05-31T16:39:34.486Z,9.50
2018-05-31T16:42:01.965Z,12.50
2018-05-31T16:44:29.459Z,9.27
2018-05-31T16:46:56.929Z,12.73
2018-05-31T16:49:24.399Z,8.37
2018-05-31T16:51:51.889Z,9.33
2018-05-31T16:54:19.398Z,6.90
2018-05-31T16:56:46.881Z,8.00
2018-05-31T16:59:14.348Z,12.03
2018-05-31T17:01:41.833Z,11.17
2018-05-31T17:04:10.072Z,10.00
2018-05-31T17:06:37.558Z,8.33
2018-05-31T17:09:05.803Z,8.90
2018-05-31T17:11:33.557Z,14.57
2018-05-31T17:14:01.025Z,13.90
2018-05-31T17:16:28.529Z,13.83
2018-05-31T17:18:55.999Z,10.63
2018-05-31T17:21:23.961Z,10.60
2018-05-31T17:23:51.439Z,7.90
2018-05-31T17:26:18.937Z,11.13
2018-05-31T17:28:47.170Z,10.17
2018-05-31T17:31:15.401Z,6.07
2018-05-31T17:33:42.890Z,17.20
2018-05-31T17:36:10.357Z,10.50
2018-05-31T17:38:37.844Z,18.13
2018-05-31T17:41:05.314Z,6.83
2018-05-31T17:43:33.562Z,17.03
2018-05-31T17:46:01.035Z,11.67
2018-05-31T17:48:29.289Z,6.53
2018-05-31T17:50:56.757Z,8.23
2018-05-31T17:53:24.241Z,17.33
2018-05-31T17:55:51.790Z,10.40
2018-05-31T17:58:20.037Z,9.03
2018-05-31T18:00:47.509Z,16.93
2018-05-31T18:03:15.785Z,19.17
2018-05-31T18:05:44.017Z,15.70
2018-05-31T18:08:11.498Z,5.77
2018-05-31T18:10:39.881Z,8.87
2018-05-31T18:13:07.369Z,7.00
2018-05-31T18:15:34.841Z,7.90
2018-05-31T18:18:02.317Z,17.80
2018-05-31T18:20:29.811Z,13.27
2018-05-31T18:22:58.057Z,19.23
2018-05-31T18:25:25.538Z,9.03
2018-05-31T18:27:53.776Z,10.60
2018-05-31T18:30:21.263Z,14.70
2018-05-31T18:32:48.765Z,10.10
2018-05-31T18:35:16.254Z,32.67
2018-05-31T18:37:43.729Z,10.07
2018-05-31T18:40:11.233Z,11.20
2018-05-31T18:42:38.701Z,14.13
2018-05-31T18:45:06.181Z,8.53
2018-05-31T18:47:33.664Z,18.40
2018-05-31T18:50:01.927Z,14.67
2018-05-31T18:52:29.405Z,16.57
2018-05-31T18:54:57.676Z,12.50
2018-05-31T18:57:25.910Z,10.57
2018-05-31T18:59:53.378Z,19.80
2018-05-31T19:02:20.868Z,11.03
2018-05-31T19:04:49.110Z,13.80
2018-05-31T19:07:16.853Z,8.30
2018-05-31T19:09:44.325Z,11.00
2018-05-31T19:12:11.817Z,15.00
2018-05-31T19:14:40.069Z,16.60
2018-05-31T19:17:07.557Z,14.33
2018-05-31T19:19:40.621Z,17.20
2018-05-31T19:22:08.876Z,12.10
2018-05-31T19:24:42.163Z,12.10
2018-05-31T19:27:09.650Z,13.73
2018-05-31T19:29:37.889Z,14.70
2018-05-31T19:32:05.382Z,15.70
2018-05-31T19:34:33.640Z,21.20
2018-05-31T19:37:06.921Z,15.00
2018-05-31T19:39:34.432Z,11.20
2018-05-31T19:42:01.911Z,15.70
2018-05-31T19:44:35.109Z,17.93
2018-05-31T19:47:02.577Z,19.63
2018-05-31T19:49:30.118Z,15.10
2018-05-31T19:52:03.334Z,11.80
2018-05-31T19:54:30.828Z,14.93
2018-05-31T19:56:58.305Z,22.47
2018-05-31T20:02:34.497Z,19.07
2018-05-31T20:05:01.988Z,17.17
2018-05-31T20:07:30.292Z,26.23
2018-05-31T20:09:57.745Z,34.57
2018-05-31T20:12:25.221Z,19.17
2018-05-31T20:14:52.710Z,23.43
2018-05-31T20:17:20.189Z,19.90
2018-05-31T20:19:48.455Z,20.23
2018-05-31T20:22:15.934Z,25.17
2018-05-31T20:24:44.199Z,19.93
2018-05-31T20:27:12.455Z,22.40
2018-05-31T20:29:39.958Z,25.80
2018-05-31T20:32:07.443Z,29.03
2018-05-31T20:34:34.917Z,23.10
2018-05-31T20:37:02.419Z,30.70
2018-05-31T20:39:29.894Z,33.60
2018-05-31T20:41:57.394Z,38.23
2018-05-31T20:44:24.870Z,18.20
2018-05-31T20:46:53.125Z,24.53
2018-05-31T20:49:20.597Z,33.10
2018-05-31T20:51:48.872Z,30.67
2018-05-31T20:54:17.169Z,25.57
2018-05-31T20:56:44.657Z,31.60
2018-05-31T20:59:12.130Z,31.70
2018-05-31T21:01:39.615Z,35.30
2018-05-31T21:04:07.862Z,30.03
2018-05-31T21:06:35.353Z,22.30
2018-05-31T21:09:03.941Z,32.07
2018-05-31T21:11:31.434Z,34.97
2018-05-31T21:13:58.905Z,25.33
2018-05-31T21:16:26.386Z,32.33
2018-05-31T21:18:54.646Z,38.73
2018-05-31T21:21:22.137Z,30.93
2018-05-31T21:23:49.637Z,29.30
2018-05-31T21:26:17.109Z,23.43
2018-05-31T21:28:44.600Z,27.90
2018-05-31T21:31:12.846Z,31.40
2018-05-31T21:33:40.335Z,33.90
2018-05-31T21:36:08.569Z,31.80
2018-05-31T21:38:36.121Z,40.77
2018-05-31T21:41:03.609Z,39.17
2018-05-31T21:43:31.878Z,32.23
2018-05-31T21:46:00.117Z,25.53
2018-05-31T21:48:27.616Z,30.60
2018-05-31T21:50:55.857Z,33.03
2018-05-31T21:53:23.734Z,35.27
2018-05-31T21:55:51.206Z,26.10
2018-05-31T21:58:19.445Z,30.80
2018-05-31T22:00:58.439Z,27.57
2018-05-31T22:03:25.914Z,25.60
2018-05-31T22:05:53.405Z,40.17
2018-05-31T22:08:20.895Z,26.00
2018-05-31T22:10:48.385Z,36.07
2018-05-31T22:13:15.858Z,27.70
2018-05-31T22:15:43.341Z,29.07
2018-05-31T22:18:11.585Z,26.50
2018-05-31T22:20:39.431Z,29.57
2018-05-31T22:23:06.913Z,31.20
2018-05-31T22:25:34.401Z,22.67
2018-05-31T22:28:02.642Z,34.50
2018-05-31T22:30:30.138Z,37.03
2018-05-31T22:32:57.618Z,28.03
2018-05-31T22:35:25.115Z,29.60
2018-05-31T22:37:52.609Z,27.37
2018-05-31T22:40:20.095Z,30.37
2018-05-31T22:42:47.569Z,29.97
2018-05-31T22:45:15.065Z,29.17
2018-05-31T22:47:43.306Z,29.80
2018-05-31T22:50:11.542Z,27.87
2018-05-31T22:52:39.433Z,24.77
2018-05-31T22:55:06.907Z,27.63
2018-05-31T22:57:34.409Z,31.50
2018-05-31T23:00:01.885Z,27.50
2018-05-31T23:02:29.372Z,26.10
2018-05-31T23:04:56.849Z,31.17
2018-05-31T23:07:24.333Z,33.43
2018-05-31T23:09:51.805Z,32.87
2018-05-31T23:12:19.297Z,24.90
2018-05-31T23:14:46.777Z,28.77
2018-05-31T23:17:15.010Z,36.20
2018-05-31T23:19:42.502Z,22.17
2018-05-31T23:22:09.973Z,27.03
2018-05-31T23:24:38.230Z,42.93
2018-05-31T23:27:05.702Z,32.37
2018-05-31T23:29:33.959Z,28.27
2018-05-31T23:32:01.433Z,24.20
2018-05-31T23:34:29.699Z,26.67
2018-05-31T23:36:57.929Z,25.23
2018-05-31T23:39:25.423Z,25.57
2018-05-31T23:41:53.668Z,30.70
2018-05-31T23:44:21.137Z,23.30
2018-05-31T23:46:48.623Z,26.40
2018-05-31T23:49:16.860Z,34.43
2018-05-31T23:51:44.349Z,32.00
2018-05-31T23:54:12.590Z,27.80
2018-05-31T23:56:40.077Z,24.10
2018-05-31T23:59:08.309Z,26.07
